sensor_id;sensor_type;location;lat;lon;timestamp;P1;durP1;ratioP1;P2;durP2;ratioP2
7295;SDS011;40758;54.038;11.684;2023-08-30T00:01:52;9.73;;;3.38;;
7295;SDS011;40758;54.038;11.684;2023-08-30T00:04:19;8.15;;;2.80;;
7295;SDS011;40758;54.038;11.684;2023-08-30T00:06:47;6.72;;;2.67;;
7295;SDS011;40758;54.038;11.684;2023-08-30T00:09:14;7.30;;;4.97;;
7295;SDS011;40758;54.038;11.684;2023-08-30T00:11:40;7.63;;;5.38;;
7295;SDS011;40758;54.038;11.684;2023-08-30T00:14:08;7.90;;;3.17;;
7295;SDS011;40758;54.038;11.684;2023-08-30T00:16:35;6.57;;;3.25;;
7295;SDS011;40758;54.038;11.684;2023-08-30T00:19:04;7.22;;;3.15;;
7295;SDS011;40758;54.038;11.684;2023-08-30T00:21:32;5.18;;;2.58;;
7295;SDS011;40758;54.038;11.684;2023-08-30T00:23:58;5.78;;;2.60;;
7295;SDS011;40758;54.038;11.684;2023-08-30T00:26:25;5.80;;;2.38;;
7295;SDS011;40758;54.038;11.684;2023-08-30T00:28:52;11.13;;;2.72;;
7295;SDS011;40758;54.038;11.684;2023-08-30T00:31:19;6.47;;;2.80;;
7295;SDS011;40758;54.038;11.684;2023-08-30T00:33:48;8.00;;;6.70;;
7295;SDS011;40758;54.038;11.684;2023-08-30T00:36:15;8.13;;;3.17;;
7295;SDS011;40758;54.038;11.684;2023-08-30T00:38:44;6.80;;;2.75;;
7295;SDS011;40758;54.038;11.684;2023-08-30T00:41:11;7.25;;;2.53;;
7295;SDS011;40758;54.038;11.684;2023-08-30T00:43:38;6.57;;;3.28;;
7295;SDS011;40758;54.038;11.684;2023-08-30T00:46:05;8.73;;;3.38;;
7295;SDS011;40758;54.038;11.684;2023-08-30T00:48:32;6.65;;;2.78;;
7295;SDS011;40758;54.038;11.684;2023-08-30T00:50:59;8.88;;;4.03;;
7295;SDS011;40758;54.038;11.684;2023-08-30T00:53:26;6.60;;;2.60;;
7295;SDS011;40758;54.038;11.684;2023-08-30T00:55:53;8.60;;;3.03;;
7295;SDS011;40758;54.038;11.684;2023-08-30T00:58:20;7.65;;;5.03;;
7295;SDS011;40758;54.038;11.684;2023-08-30T01:00:47;10.35;;;2.95;;
7295;SDS011;40758;54.038;11.684;2023-08-30T01:03:14;7.05;;;5.30;;
7295;SDS011;40758;54.038;11.684;2023-08-30T01:05:41;7.57;;;3.28;;
7295;SDS011;40758;54.038;11.684;2023-08-30T01:08:08;8.32;;;2.25;;
7295;SDS011;40758;54.038;11.684;2023-08-30T01:10:42;6.18;;;2.75;;
7295;SDS011;40758;54.038;11.684;2023-08-30T01:13:20;6.25;;;2.42;;
7295;SDS011;40758;54.038;11.684;2023-08-30T01:15:47;7.22;;;2.75;;
7295;SDS011;40758;54.038;11.684;2023-08-30T01:18:18;7.35;;;3.17;;
7295;SDS011;40758;54.038;11.684;2023-08-30T01:20:48;6.95;;;2.70;;
7295;SDS011;40758;54.038;11.684;2023-08-30T01:29:03;5.72;;;2.08;;
7295;SDS011;40758;54.038;11.684;2023-08-30T01:31:32;5.95;;;2.50;;
7295;SDS011;40758;54.038;11.684;2023-08-30T01:34:03;7.28;;;2.38;;
7295;SDS011;40758;54.038;11.684;2023-08-30T01:36:30;5.68;;;2.03;;
7295;SDS011;40758;54.038;11.684;2023-08-30T01:38:58;6.68;;;3.92;;
7295;SDS011;40758;54.038;11.684;2023-08-30T01:41:26;8.23;;;3.13;;
7295;SDS011;40758;54.038;11.684;2023-08-30T01:43:55;7.97;;;2.60;;
7295;SDS011;40758;54.038;11.684;2023-08-30T01:46:25;7.50;;;2.95;;
7295;SDS011;40758;54.038;11.684;2023-08-30T01:48:53;8.65;;;4.30;;
7295;SDS011;40758;54.038;11.684;2023-08-30T01:51:22;7.70;;;3.42;;
7295;SDS011;40758;54.038;11.684;2023-08-30T01:53:49;6.72;;;2.80;;
7295;SDS011;40758;54.038;11.684;2023-08-30T01:56:19;6.25;;;3.40;;
7295;SDS011;40758;54.038;11.684;2023-08-30T01:58:46;8.68;;;3.17;;
7295;SDS011;40758;54.038;11.684;2023-08-30T02:01:16;8.48;;;2.60;;
7295;SDS011;40758;54.038;11.684;2023-08-30T02:03:43;8.02;;;3.28;;
7295;SDS011;40758;54.038;11.684;2023-08-30T02:06:33;9.00;;;3.38;;
7295;SDS011;40758;54.038;11.684;2023-08-30T02:09:39;8.63;;;2.78;;
7295;SDS011;40758;54.038;11.684;2023-08-30T02:12:13;9.07;;;3.05;;
7295;SDS011;40758;54.038;11.684;2023-08-30T02:14:47;7.53;;;3.08;;
7295;SDS011;40758;54.038;11.684;2023-08-30T02:17:15;8.95;;;5.80;;
7295;SDS011;40758;54.038;11.684;2023-08-30T02:19:44;7.45;;;2.95;;
7295;SDS011;40758;54.038;11.684;2023-08-30T02:22:12;7.30;;;2.83;;
7295;SDS011;40758;54.038;11.684;2023-08-30T02:24:38;6.25;;;2.17;;
7295;SDS011;40758;54.038;11.684;2023-08-30T02:27:05;9.32;;;3.53;;
7295;SDS011;40758;54.038;11.684;2023-08-30T02:29:32;7.53;;;2.97;;
7295;SDS011;40758;54.038;11.684;2023-08-30T02:31:58;5.60;;;2.63;;
7295;SDS011;40758;54.038;11.684;2023-08-30T02:34:25;7.65;;;2.88;;
7295;SDS011;40758;54.038;11.684;2023-08-30T02:36:51;8.60;;;5.22;;
7295;SDS011;40758;54.038;11.684;2023-08-30T02:39:21;7.90;;;3.85;;
7295;SDS011;40758;54.038;11.684;2023-08-30T02:41:48;9.88;;;3.55;;
7295;SDS011;40758;54.038;11.684;2023-08-30T02:44:15;8.80;;;3.80;;
7295;SDS011;40758;54.038;11.684;2023-08-30T02:46:41;9.27;;;3.60;;
7295;SDS011;40758;54.038;11.684;2023-08-30T02:49:08;9.13;;;3.80;;
7295;SDS011;40758;54.038;11.684;2023-08-30T02:51:37;8.27;;;2.90;;
7295;SDS011;40758;54.038;11.684;2023-08-30T02:54:04;9.43;;;3.40;;
7295;SDS011;40758;54.038;11.684;2023-08-30T02:56:31;11.23;;;5.53;;
7295;SDS011;40758;54.038;11.684;2023-08-30T02:58:58;8.73;;;3.03;;
7295;SDS011;40758;54.038;11.684;2023-08-30T03:01:24;9.48;;;4.18;;
7295;SDS011;40758;54.038;11.684;2023-08-30T03:03:51;9.77;;;4.45;;
7295;SDS011;40758;54.038;11.684;2023-08-30T03:06:18;8.80;;;3.70;;
7295;SDS011;40758;54.038;11.684;2023-08-30T03:08:45;6.28;;;4.63;;
7295;SDS011;40758;54.038;11.684;2023-08-30T03:11:12;6.93;;;3.03;;
7295;SDS011;40758;54.038;11.684;2023-08-30T03:13:39;6.00;;;2.53;;
7295;SDS011;40758;54.038;11.684;2023-08-30T03:16:10;6.88;;;3.22;;
7295;SDS011;40758;54.038;11.684;2023-08-30T03:18:38;6.40;;;2.92;;
7295;SDS011;40758;54.038;11.684;2023-08-30T03:21:06;8.18;;;2.88;;
7295;SDS011;40758;54.038;11.684;2023-08-30T03:23:34;5.13;;;1.85;;
7295;SDS011;40758;54.038;11.684;2023-08-30T03:28:43;7.38;;;3.20;;
7295;SDS011;40758;54.038;11.684;2023-08-30T03:33:37;7.07;;;2.67;;
7295;SDS011;40758;54.038;11.684;2023-08-30T03:36:04;7.97;;;3.33;;
7295;SDS011;40758;54.038;11.684;2023-08-30T03:38:32;7.68;;;3.10;;
7295;SDS011;40758;54.038;11.684;2023-08-30T03:40:59;7.72;;;2.70;;
7295;SDS011;40758;54.038;11.684;2023-08-30T03:43:25;9.73;;;2.88;;
7295;SDS011;40758;54.038;11.684;2023-08-30T03:45:52;7.53;;;2.72;;
7295;SDS011;40758;54.038;11.684;2023-08-30T03:48:19;9.70;;;3.80;;
7295;SDS011;40758;54.038;11.684;2023-08-30T03:50:45;7.82;;;3.30;;
7295;SDS011;40758;54.038;11.684;2023-08-30T03:53:12;8.10;;;5.53;;
7295;SDS011;40758;54.038;11.684;2023-08-30T03:55:40;8.43;;;3.15;;
7295;SDS011;40758;54.038;11.684;2023-08-30T03:58:07;8.88;;;3.38;;
7295;SDS011;40758;54.038;11.684;2023-08-30T04:00:37;10.30;;;3.17;;
7295;SDS011;40758;54.038;11.684;2023-08-30T04:03:07;8.57;;;2.97;;
7295;SDS011;40758;54.038;11.684;2023-08-30T04:05:38;10.88;;;5.57;;
7295;SDS011;40758;54.038;11.684;2023-08-30T04:08:05;11.05;;;3.17;;
7295;SDS011;40758;54.038;11.684;2023-08-30T04:13:07;8.40;;;2.85;;
7295;SDS011;40758;54.038;11.684;2023-08-30T04:18:03;5.10;;;1.95;;
7295;SDS011;40758;54.038;11.684;2023-08-30T04:20:33;6.47;;;2.53;;
7295;SDS011;40758;54.038;11.684;2023-08-30T04:23:00;7.50;;;2.50;;
7295;SDS011;40758;54.038;11.684;2023-08-30T04:25:28;9.35;;;3.65;;
7295;SDS011;40758;54.038;11.684;2023-08-30T04:27:55;9.35;;;3.70;;
7295;SDS011;40758;54.038;11.684;2023-08-30T04:30:23;9.20;;;3.47;;
7295;SDS011;40758;54.038;11.684;2023-08-30T04:32:50;8.68;;;3.33;;
7295;SDS011;40758;54.038;11.684;2023-08-30T04:35:17;8.65;;;3.30;;
7295;SDS011;40758;54.038;11.684;2023-08-30T04:37:44;8.85;;;2.63;;
7295;SDS011;40758;54.038;11.684;2023-08-30T04:40:11;9.00;;;2.60;;
7295;SDS011;40758;54.038;11.684;2023-08-30T04:42:38;9.20;;;3.42;;
7295;SDS011;40758;54.038;11.684;2023-08-30T04:45:07;8.65;;;2.70;;
7295;SDS011;40758;54.038;11.684;2023-08-30T04:52:30;9.75;;;2.47;;
7295;SDS011;40758;54.038;11.684;2023-08-30T04:54:57;7.80;;;2.63;;
7295;SDS011;40758;54.038;11.684;2023-08-30T04:57:24;9.23;;;3.03;;
7295;SDS011;40758;54.038;11.684;2023-08-30T04:59:51;9.13;;;3.70;;
7295;SDS011;40758;54.038;11.684;2023-08-30T05:02:17;7.72;;;3.08;;
7295;SDS011;40758;54.038;11.684;2023-08-30T05:04:44;11.32;;;2.92;;
7295;SDS011;40758;54.038;11.684;2023-08-30T05:07:10;7.93;;;3.00;;
7295;SDS011;40758;54.038;11.684;2023-08-30T05:09:37;9.45;;;3.03;;
7295;SDS011;40758;54.038;11.684;2023-08-30T05:12:07;7.93;;;2.65;;
7295;SDS011;40758;54.038;11.684;2023-08-30T05:14:34;6.13;;;2.70;;
7295;SDS011;40758;54.038;11.684;2023-08-30T05:17:00;7.93;;;2.85;;
7295;SDS011;40758;54.038;11.684;2023-08-30T05:19:27;7.15;;;3.05;;
7295;SDS011;40758;54.038;11.684;2023-08-30T05:21:53;9.63;;;3.58;;
7295;SDS011;40758;54.038;11.684;2023-08-30T05:24:21;8.73;;;3.65;;
7295;SDS011;40758;54.038;11.684;2023-08-30T05:26:48;7.25;;;2.90;;
7295;SDS011;40758;54.038;11.684;2023-08-30T05:29:15;7.97;;;2.83;;
7295;SDS011;40758;54.038;11.684;2023-08-30T05:31:42;8.02;;;3.33;;
7295;SDS011;40758;54.038;11.684;2023-08-30T05:34:12;6.85;;;2.58;;
7295;SDS011;40758;54.038;11.684;2023-08-30T05:36:39;6.60;;;2.50;;
7295;SDS011;40758;54.038;11.684;2023-08-30T05:39:05;7.88;;;2.50;;
7295;SDS011;40758;54.038;11.684;2023-08-30T05:41:32;7.43;;;2.85;;
7295;SDS011;40758;54.038;11.684;2023-08-30T05:43:59;7.18;;;2.42;;
7295;SDS011;40758;54.038;11.684;2023-08-30T05:46:26;9.93;;;2.85;;
7295;SDS011;40758;54.038;11.684;2023-08-30T05:48:53;11.82;;;3.53;;
7295;SDS011;40758;54.038;11.684;2023-08-30T05:51:25;10.00;;;2.92;;
7295;SDS011;40758;54.038;11.684;2023-08-30T05:53:52;10.20;;;3.70;;
7295;SDS011;40758;54.038;11.684;2023-08-30T05:56:19;11.02;;;4.15;;
7295;SDS011;40758;54.038;11.684;2023-08-30T05:58:46;11.63;;;4.55;;
7295;SDS011;40758;54.038;11.684;2023-08-30T06:01:13;10.13;;;3.92;;
7295;SDS011;40758;54.038;11.684;2023-08-30T06:03:40;8.20;;;3.95;;
7295;SDS011;40758;54.038;11.684;2023-08-30T06:06:07;10.30;;;5.95;;
7295;SDS011;40758;54.038;11.684;2023-08-30T06:08:34;9.20;;;4.63;;
7295;SDS011;40758;54.038;11.684;2023-08-30T06:11:01;12.32;;;4.95;;
7295;SDS011;40758;54.038;11.684;2023-08-30T06:13:27;10.02;;;4.35;;
7295;SDS011;40758;54.038;11.684;2023-08-30T06:15:54;13.63;;;6.35;;
7295;SDS011;40758;54.038;11.684;2023-08-30T06:18:21;14.13;;;6.97;;
7295;SDS011;40758;54.038;11.684;2023-08-30T06:20:49;14.50;;;6.65;;
7295;SDS011;40758;54.038;11.684;2023-08-30T06:23:17;12.88;;;6.13;;
7295;SDS011;40758;54.038;11.684;2023-08-30T06:25:45;13.63;;;6.90;;
7295;SDS011;40758;54.038;11.684;2023-08-30T06:28:19;13.15;;;6.13;;
7295;SDS011;40758;54.038;11.684;2023-08-30T06:30:46;13.32;;;6.97;;
7295;SDS011;40758;54.038;11.684;2023-08-30T06:33:12;13.20;;;7.22;;
7295;SDS011;40758;54.038;11.684;2023-08-30T06:35:39;13.30;;;7.30;;
7295;SDS011;40758;54.038;11.684;2023-08-30T06:38:06;14.35;;;9.38;;
7295;SDS011;40758;54.038;11.684;2023-08-30T06:40:33;12.88;;;5.88;;
7295;SDS011;40758;54.038;11.684;2023-08-30T06:43:00;12.88;;;6.85;;
7295;SDS011;40758;54.038;11.684;2023-08-30T06:45:26;12.10;;;7.05;;
7295;SDS011;40758;54.038;11.684;2023-08-30T06:47:53;12.43;;;7.00;;
7295;SDS011;40758;54.038;11.684;2023-08-30T06:50:20;11.82;;;9.32;;
7295;SDS011;40758;54.038;11.684;2023-08-30T06:52:46;11.95;;;6.90;;
7295;SDS011;40758;54.038;11.684;2023-08-30T06:55:13;10.90;;;6.57;;
7295;SDS011;40758;54.038;11.684;2023-08-30T06:57:40;12.27;;;5.70;;
7295;SDS011;40758;54.038;11.684;2023-08-30T07:00:08;11.75;;;6.90;;
7295;SDS011;40758;54.038;11.684;2023-08-30T07:02:41;11.00;;;6.95;;
7295;SDS011;40758;54.038;11.684;2023-08-30T07:05:11;12.88;;;7.20;;
7295;SDS011;40758;54.038;11.684;2023-08-30T07:07:39;14.25;;;7.35;;
7295;SDS011;40758;54.038;11.684;2023-08-30T07:10:06;13.55;;;8.18;;
7295;SDS011;40758;54.038;11.684;2023-08-30T07:12:33;14.13;;;7.55;;
7295;SDS011;40758;54.038;11.684;2023-08-30T07:15:00;12.68;;;6.70;;
7295;SDS011;40758;54.038;11.684;2023-08-30T07:17:29;14.48;;;9.23;;
7295;SDS011;40758;54.038;11.684;2023-08-30T07:20:17;12.68;;;7.18;;
7295;SDS011;40758;54.038;11.684;2023-08-30T07:22:46;12.45;;;7.45;;
7295;SDS011;40758;54.038;11.684;2023-08-30T07:25:13;12.63;;;8.07;;
7295;SDS011;40758;54.038;11.684;2023-08-30T07:27:40;17.58;;;8.18;;
7295;SDS011;40758;54.038;11.684;2023-08-30T07:30:07;12.73;;;7.05;;
7295;SDS011;40758;54.038;11.684;2023-08-30T07:32:37;12.27;;;7.53;;
7295;SDS011;40758;54.038;11.684;2023-08-30T07:35:05;10.02;;;6.38;;
7295;SDS011;40758;54.038;11.684;2023-08-30T07:37:32;11.35;;;5.72;;
7295;SDS011;40758;54.038;11.684;2023-08-30T07:40:01;10.85;;;5.60;;
7295;SDS011;40758;54.038;11.684;2023-08-30T07:42:31;9.75;;;6.80;;
7295;SDS011;40758;54.038;11.684;2023-08-30T07:44:57;7.32;;;5.05;;
7295;SDS011;40758;54.038;11.684;2023-08-30T07:47:29;7.90;;;5.35;;
7295;SDS011;40758;54.038;11.684;2023-08-30T07:50:04;7.25;;;4.00;;
7295;SDS011;40758;54.038;11.684;2023-08-30T07:52:44;7.50;;;5.93;;
7295;SDS011;40758;54.038;11.684;2023-08-30T07:55:18;7.50;;;5.43;;
7295;SDS011;40758;54.038;11.684;2023-08-30T07:57:55;6.82;;;3.17;;
7295;SDS011;40758;54.038;11.684;2023-08-30T08:00:22;5.40;;;2.65;;
7295;SDS011;40758;54.038;11.684;2023-08-30T08:02:51;5.10;;;2.90;;
7295;SDS011;40758;54.038;11.684;2023-08-30T08:05:18;4.40;;;1.95;;
7295;SDS011;40758;54.038;11.684;2023-08-30T08:07:45;4.57;;;1.80;;
7295;SDS011;40758;54.038;11.684;2023-08-30T08:10:12;4.65;;;2.55;;
7295;SDS011;40758;54.038;11.684;2023-08-30T08:12:39;3.03;;;1.42;;
7295;SDS011;40758;54.038;11.684;2023-08-30T08:15:06;3.92;;;1.90;;
7295;SDS011;40758;54.038;11.684;2023-08-30T08:17:33;3.55;;;1.70;;
7295;SDS011;40758;54.038;11.684;2023-08-30T08:20:00;3.53;;;1.70;;
7295;SDS011;40758;54.038;11.684;2023-08-30T08:22:26;4.88;;;2.28;;
7295;SDS011;40758;54.038;11.684;2023-08-30T08:24:55;3.95;;;1.80;;
7295;SDS011;40758;54.038;11.684;2023-08-30T08:27:27;3.55;;;1.60;;
7295;SDS011;40758;54.038;11.684;2023-08-30T08:29:57;5.38;;;1.23;;
7295;SDS011;40758;54.038;11.684;2023-08-30T08:32:31;4.07;;;2.22;;
7295;SDS011;40758;54.038;11.684;2023-08-30T08:35:21;3.42;;;1.60;;
7295;SDS011;40758;54.038;11.684;2023-08-30T08:37:51;3.63;;;1.13;;
7295;SDS011;40758;54.038;11.684;2023-08-30T08:40:17;2.60;;;1.08;;
7295;SDS011;40758;54.038;11.684;2023-08-30T08:42:58;2.92;;;1.15;;
7295;SDS011;40758;54.038;11.684;2023-08-30T08:45:25;3.97;;;1.77;;
7295;SDS011;40758;54.038;11.684;2023-08-30T08:47:52;3.53;;;0.90;;
7295;SDS011;40758;54.038;11.684;2023-08-30T08:50:19;1.85;;;0.82;;
7295;SDS011;40758;54.038;11.684;2023-08-30T08:52:46;3.22;;;1.52;;
7295;SDS011;40758;54.038;11.684;2023-08-30T08:55:26;3.55;;;1.23;;
7295;SDS011;40758;54.038;11.684;2023-08-30T08:57:53;2.50;;;1.17;;
7295;SDS011;40758;54.038;11.684;2023-08-30T09:00:20;2.72;;;1.27;;
7295;SDS011;40758;54.038;11.684;2023-08-30T09:02:47;3.65;;;1.27;;
7295;SDS011;40758;54.038;11.684;2023-08-30T09:05:16;4.93;;;1.75;;
7295;SDS011;40758;54.038;11.684;2023-08-30T09:07:44;2.63;;;1.75;;
7295;SDS011;40758;54.038;11.684;2023-08-30T09:10:12;2.95;;;1.67;;
7295;SDS011;40758;54.038;11.684;2023-08-30T09:12:38;5.07;;;0.90;;
7295;SDS011;40758;54.038;11.684;2023-08-30T09:15:05;3.42;;;1.13;;
7295;SDS011;40758;54.038;11.684;2023-08-30T09:17:36;3.25;;;0.82;;
7295;SDS011;40758;54.038;11.684;2023-08-30T09:20:07;2.80;;;1.10;;
7295;SDS011;40758;54.038;11.684;2023-08-30T09:22:39;2.22;;;0.93;;
7295;SDS011;40758;54.038;11.684;2023-08-30T09:25:11;3.88;;;1.48;;
7295;SDS011;40758;54.038;11.684;2023-08-30T09:27:48;2.60;;;1.13;;
7295;SDS011;40758;54.038;11.684;2023-08-30T09:30:20;2.58;;;1.25;;
7295;SDS011;40758;54.038;11.684;2023-08-30T09:32:48;2.75;;;1.83;;
7295;SDS011;40758;54.038;11.684;2023-08-30T09:35:20;3.75;;;1.50;;
7295;SDS011;40758;54.038;11.684;2023-08-30T09:37:47;3.38;;;1.35;;
7295;SDS011;40758;54.038;11.684;2023-08-30T09:40:18;3.45;;;1.15;;
7295;SDS011;40758;54.038;11.684;2023-08-30T09:42:46;2.38;;;1.20;;
7295;SDS011;40758;54.038;11.684;2023-08-30T09:45:32;3.10;;;1.42;;
7295;SDS011;40758;54.038;11.684;2023-08-30T09:48:00;3.63;;;1.50;;
7295;SDS011;40758;54.038;11.684;2023-08-30T09:50:27;1.98;;;0.63;;
7295;SDS011;40758;54.038;11.684;2023-08-30T09:52:57;2.08;;;0.95;;
7295;SDS011;40758;54.038;11.684;2023-08-30T09:55:24;2.70;;;0.85;;
7295;SDS011;40758;54.038;11.684;2023-08-30T09:57:51;2.30;;;0.68;;
7295;SDS011;40758;54.038;11.684;2023-08-30T10:00:23;3.30;;;0.75;;
7295;SDS011;40758;54.038;11.684;2023-08-30T10:02:50;3.00;;;1.48;;
7295;SDS011;40758;54.038;11.684;2023-08-30T10:05:37;2.30;;;1.30;;
7295;SDS011;40758;54.038;11.684;2023-08-30T10:08:06;3.60;;;1.48;;
7295;SDS011;40758;54.038;11.684;2023-08-30T10:10:33;2.53;;;1.50;;
7295;SDS011;40758;54.038;11.684;2023-08-30T10:13:01;2.92;;;1.20;;
7295;SDS011;40758;54.038;11.684;2023-08-30T10:15:35;2.58;;;1.45;;
7295;SDS011;40758;54.038;11.684;2023-08-30T10:18:11;2.97;;;1.77;;
7295;SDS011;40758;54.038;11.684;2023-08-30T10:20:44;2.42;;;1.02;;
7295;SDS011;40758;54.038;11.684;2023-08-30T10:23:11;2.95;;;1.10;;
7295;SDS011;40758;54.038;11.684;2023-08-30T10:25:40;3.20;;;1.42;;
7295;SDS011;40758;54.038;11.684;2023-08-30T10:28:08;2.40;;;0.80;;
7295;SDS011;40758;54.038;11.684;2023-08-30T10:30:36;2.72;;;0.70;;
7295;SDS011;40758;54.038;11.684;2023-08-30T10:33:03;2.60;;;1.08;;
7295;SDS011;40758;54.038;11.684;2023-08-30T10:35:49;2.10;;;0.93;;
7295;SDS011;40758;54.038;11.684;2023-08-30T10:38:24;3.58;;;2.33;;
7295;SDS011;40758;54.038;11.684;2023-08-30T10:40:55;2.40;;;0.70;;
7295;SDS011;40758;54.038;11.684;2023-08-30T10:43:34;2.30;;;1.35;;
7295;SDS011;40758;54.038;11.684;2023-08-30T10:46:02;2.78;;;0.80;;
7295;SDS011;40758;54.038;11.684;2023-08-30T10:48:34;2.53;;;1.73;;
7295;SDS011;40758;54.038;11.684;2023-08-30T10:53:33;2.20;;;1.83;;
7295;SDS011;40758;54.038;11.684;2023-08-30T10:56:18;4.10;;;0.88;;
7295;SDS011;40758;54.038;11.684;2023-08-30T10:58:56;1.95;;;0.70;;
7295;SDS011;40758;54.038;11.684;2023-08-30T11:01:23;2.63;;;1.20;;
7295;SDS011;40758;54.038;11.684;2023-08-30T11:03:52;2.45;;;1.15;;
7295;SDS011;40758;54.038;11.684;2023-08-30T11:06:37;3.38;;;0.85;;
7295;SDS011;40758;54.038;11.684;2023-08-30T11:09:04;2.30;;;1.58;;
7295;SDS011;40758;54.038;11.684;2023-08-30T11:14:03;2.53;;;1.08;;
7295;SDS011;40758;54.038;11.684;2023-08-30T11:16:34;3.10;;;1.13;;
7295;SDS011;40758;54.038;11.684;2023-08-30T11:19:01;2.22;;;1.02;;
7295;SDS011;40758;54.038;11.684;2023-08-30T11:21:36;3.10;;;2.80;;
7295;SDS011;40758;54.038;11.684;2023-08-30T11:24:05;4.13;;;1.08;;
7295;SDS011;40758;54.038;11.684;2023-08-30T11:26:33;2.92;;;1.35;;
7295;SDS011;40758;54.038;11.684;2023-08-30T11:29:06;2.20;;;1.13;;
7295;SDS011;40758;54.038;11.684;2023-08-30T11:31:33;2.58;;;0.88;;
7295;SDS011;40758;54.038;11.684;2023-08-30T11:34:01;2.45;;;0.95;;
7295;SDS011;40758;54.038;11.684;2023-08-30T11:36:29;2.60;;;0.70;;
7295;SDS011;40758;54.038;11.684;2023-08-30T11:38:57;2.45;;;1.13;;
7295;SDS011;40758;54.038;11.684;2023-08-30T11:41:25;2.20;;;0.95;;
7295;SDS011;40758;54.038;11.684;2023-08-30T11:43:55;2.30;;;1.08;;
7295;SDS011;40758;54.038;11.684;2023-08-30T11:46:24;3.38;;;1.83;;
7295;SDS011;40758;54.038;11.684;2023-08-30T11:48:51;3.22;;;0.90;;
7295;SDS011;40758;54.038;11.684;2023-08-30T11:51:21;4.93;;;1.17;;
7295;SDS011;40758;54.038;11.684;2023-08-30T11:53:48;3.85;;;1.02;;
7295;SDS011;40758;54.038;11.684;2023-08-30T11:56:16;5.32;;;3.60;;
7295;SDS011;40758;54.038;11.684;2023-08-30T11:58:43;5.10;;;2.00;;
7295;SDS011;40758;54.038;11.684;2023-08-30T12:01:10;5.75;;;1.88;;
7295;SDS011;40758;54.038;11.684;2023-08-30T12:03:37;5.75;;;2.97;;
7295;SDS011;40758;54.038;11.684;2023-08-30T12:06:09;10.50;;;2.65;;
7295;SDS011;40758;54.038;11.684;2023-08-30T12:08:39;4.97;;;1.85;;
7295;SDS011;40758;54.038;11.684;2023-08-30T12:11:06;4.90;;;1.40;;
7295;SDS011;40758;54.038;11.684;2023-08-30T12:13:47;6.43;;;2.65;;
7295;SDS011;40758;54.038;11.684;2023-08-30T12:16:17;4.65;;;3.47;;
7295;SDS011;40758;54.038;11.684;2023-08-30T12:18:50;4.35;;;1.95;;
7295;SDS011;40758;54.038;11.684;2023-08-30T12:21:17;3.42;;;2.08;;
7295;SDS011;40758;54.038;11.684;2023-08-30T12:23:44;3.78;;;2.47;;
7295;SDS011;40758;54.038;11.684;2023-08-30T12:26:11;4.97;;;2.58;;
7295;SDS011;40758;54.038;11.684;2023-08-30T12:28:38;8.73;;;3.08;;
7295;SDS011;40758;54.038;11.684;2023-08-30T12:31:08;6.32;;;2.63;;
7295;SDS011;40758;54.038;11.684;2023-08-30T12:33:34;5.05;;;2.05;;
7295;SDS011;40758;54.038;11.684;2023-08-30T12:36:01;4.45;;;3.05;;
7295;SDS011;40758;54.038;11.684;2023-08-30T12:38:30;4.45;;;2.55;;
7295;SDS011;40758;54.038;11.684;2023-08-30T12:40:56;3.95;;;2.22;;
7295;SDS011;40758;54.038;11.684;2023-08-30T12:43:23;3.70;;;1.42;;
7295;SDS011;40758;54.038;11.684;2023-08-30T12:45:50;4.07;;;2.30;;
7295;SDS011;40758;54.038;11.684;2023-08-30T12:48:17;4.80;;;2.00;;
7295;SDS011;40758;54.038;11.684;2023-08-30T12:50:45;3.90;;;1.92;;
7295;SDS011;40758;54.038;11.684;2023-08-30T12:53:15;3.45;;;2.63;;
7295;SDS011;40758;54.038;11.684;2023-08-30T12:55:45;3.55;;;1.73;;
7295;SDS011;40758;54.038;11.684;2023-08-30T12:58:12;3.30;;;1.60;;
7295;SDS011;40758;54.038;11.684;2023-08-30T13:00:41;4.60;;;4.20;;
7295;SDS011;40758;54.038;11.684;2023-08-30T13:03:11;3.20;;;1.60;;
7295;SDS011;40758;54.038;11.684;2023-08-30T13:05:38;4.70;;;1.50;;
7295;SDS011;40758;54.038;11.684;2023-08-30T13:08:04;4.03;;;1.17;;
7295;SDS011;40758;54.038;11.684;2023-08-30T13:10:32;2.60;;;1.10;;
7295;SDS011;40758;54.038;11.684;2023-08-30T13:12:58;3.10;;;1.40;;
7295;SDS011;40758;54.038;11.684;2023-08-30T13:15:25;3.42;;;1.92;;
7295;SDS011;40758;54.038;11.684;2023-08-30T13:17:52;3.17;;;1.80;;
7295;SDS011;40758;54.038;11.684;2023-08-30T13:20:19;4.20;;;1.55;;
7295;SDS011;40758;54.038;11.684;2023-08-30T13:22:46;2.80;;;1.60;;
7295;SDS011;40758;54.038;11.684;2023-08-30T13:25:13;5.05;;;4.47;;
7295;SDS011;40758;54.038;11.684;2023-08-30T13:27:40;3.20;;;1.38;;
7295;SDS011;40758;54.038;11.684;2023-08-30T13:30:07;2.90;;;1.05;;
7295;SDS011;40758;54.038;11.684;2023-08-30T13:32:34;3.03;;;1.35;;
7295;SDS011;40758;54.038;11.684;2023-08-30T13:35:01;2.80;;;1.48;;
7295;SDS011;40758;54.038;11.684;2023-08-30T13:37:29;4.05;;;3.33;;
7295;SDS011;40758;54.038;11.684;2023-08-30T13:39:55;2.38;;;0.88;;
7295;SDS011;40758;54.038;11.684;2023-08-30T13:42:22;2.20;;;0.70;;
7295;SDS011;40758;54.038;11.684;2023-08-30T13:44:52;3.00;;;0.82;;
7295;SDS011;40758;54.038;11.684;2023-08-30T13:47:19;2.30;;;0.80;;
7295;SDS011;40758;54.038;11.684;2023-08-30T13:49:46;3.13;;;2.70;;
7295;SDS011;40758;54.038;11.684;2023-08-30T13:52:13;2.83;;;0.88;;
7295;SDS011;40758;54.038;11.684;2023-08-30T13:54:42;2.75;;;1.25;;
7295;SDS011;40758;54.038;11.684;2023-08-30T13:57:10;2.42;;;1.08;;
7295;SDS011;40758;54.038;11.684;2023-08-30T13:59:36;3.30;;;1.05;;
7295;SDS011;40758;54.038;11.684;2023-08-30T14:02:04;2.88;;;0.80;;
7295;SDS011;40758;54.038;11.684;2023-08-30T14:04:31;2.40;;;0.75;;
7295;SDS011;40758;54.038;11.684;2023-08-30T14:07:03;2.42;;;1.00;;
7295;SDS011;40758;54.038;11.684;2023-08-30T14:09:30;4.43;;;1.02;;
7295;SDS011;40758;54.038;11.684;2023-08-30T14:11:58;3.35;;;1.20;;
7295;SDS011;40758;54.038;11.684;2023-08-30T14:14:25;2.00;;;0.80;;
7295;SDS011;40758;54.038;11.684;2023-08-30T14:16:51;2.70;;;1.23;;
7295;SDS011;40758;54.038;11.684;2023-08-30T14:19:18;3.53;;;1.35;;
7295;SDS011;40758;54.038;11.684;2023-08-30T14:21:45;3.50;;;1.35;;
7295;SDS011;40758;54.038;11.684;2023-08-30T14:24:12;2.40;;;1.25;;
7295;SDS011;40758;54.038;11.684;2023-08-30T14:26:41;4.05;;;1.05;;
7295;SDS011;40758;54.038;11.684;2023-08-30T14:29:08;2.47;;;0.90;;
7295;SDS011;40758;54.038;11.684;2023-08-30T14:31:35;3.78;;;1.58;;
7295;SDS011;40758;54.038;11.684;2023-08-30T14:34:02;2.28;;;1.48;;
7295;SDS011;40758;54.038;11.684;2023-08-30T14:36:32;3.35;;;1.20;;
7295;SDS011;40758;54.038;11.684;2023-08-30T14:39:02;2.78;;;1.00;;
7295;SDS011;40758;54.038;11.684;2023-08-30T14:41:29;5.60;;;1.30;;
7295;SDS011;40758;54.038;11.684;2023-08-30T14:43:56;3.70;;;3.40;;
7295;SDS011;40758;54.038;11.684;2023-08-30T14:46:24;3.53;;;1.52;;
7295;SDS011;40758;54.038;11.684;2023-08-30T14:48:52;4.00;;;1.27;;
7295;SDS011;40758;54.038;11.684;2023-08-30T14:51:19;3.03;;;1.20;;
7295;SDS011;40758;54.038;11.684;2023-08-30T14:53:46;2.75;;;1.17;;
7295;SDS011;40758;54.038;11.684;2023-08-30T14:56:12;4.68;;;0.90;;
7295;SDS011;40758;54.038;11.684;2023-08-30T14:58:42;2.28;;;1.15;;
7295;SDS011;40758;54.038;11.684;2023-08-30T15:01:41;1.90;;;0.88;;
7295;SDS011;40758;54.038;11.684;2023-08-30T15:04:15;3.10;;;1.30;;
7295;SDS011;40758;54.038;11.684;2023-08-30T15:06:49;3.05;;;0.65;;
7295;SDS011;40758;54.038;11.684;2023-08-30T15:09:29;2.95;;;1.17;;
7295;SDS011;40758;54.038;11.684;2023-08-30T15:11:59;4.05;;;1.02;;
7295;SDS011;40758;54.038;11.684;2023-08-30T15:14:31;3.60;;;1.50;;
7295;SDS011;40758;54.038;11.684;2023-08-30T15:17:14;3.03;;;1.20;;
7295;SDS011;40758;54.038;11.684;2023-08-30T15:19:52;3.17;;;1.02;;
7295;SDS011;40758;54.038;11.684;2023-08-30T15:22:29;2.92;;;1.00;;